sensor_id;sensor_type;location;lat;lon;timestamp;temperature;humidity
24522;DHT22;12680;57.804;12.190;2022-10-31T00:00:48;14.80;99.90
24522;DHT22;12680;57.804;12.190;2022-10-31T00:03:16;14.70;99.90
24522;DHT22;12680;57.804;12.190;2022-10-31T00:05:46;14.70;99.90
24522;DHT22;12680;57.804;12.190;2022-10-31T00:08:14;14.70;99.90
24522;DHT22;12680;57.804;12.190;2022-10-31T00:10:42;14.70;99.90
24522;DHT22;12680;57.804;12.190;2022-10-31T00:13:10;14.80;99.90
24522;DHT22;12680;57.804;12.190;2022-10-31T00:15:39;14.80;99.90
24522;DHT22;12680;57.804;12.190;2022-10-31T00:18:08;14.80;99.90
24522;DHT22;12680;57.804;12.190;2022-10-31T00:20:36;14.80;99.90
24522;DHT22;12680;57.804;12.190;2022-10-31T00:23:04;14.80;99.90
24522;DHT22;12680;57.804;12.190;2022-10-31T00:25:37;14.80;99.90
24522;DHT22;12680;57.804;12.190;2022-10-31T00:28:06;14.80;99.90
24522;DHT22;12680;57.804;12.190;2022-10-31T00:30:34;14.80;99.90
24522;DHT22;12680;57.804;12.190;2022-10-31T00:33:03;14.80;99.90
24522;DHT22;12680;57.804;12.190;2022-10-31T00:35:31;14.80;99.90
24522;DHT22;12680;57.804;12.190;2022-10-31T00:37:58;14.80;99.90
24522;DHT22;12680;57.804;12.190;2022-10-31T00:40:25;14.80;99.90
24522;DHT22;12680;57.804;12.190;2022-10-31T00:42:52;14.80;99.90
24522;DHT22;12680;57.804;12.190;2022-10-31T00:45:20;14.80;99.90
24522;DHT22;12680;57.804;12.190;2022-10-31T00:47:47;14.80;99.90
24522;DHT22;12680;57.804;12.190;2022-10-31T00:50:14;14.80;99.90
24522;DHT22;12680;57.804;12.190;2022-10-31T00:52:41;14.80;99.90
24522;DHT22;12680;57.804;12.190;2022-10-31T00:55:08;14.80;99.90
24522;DHT22;12680;57.804;12.190;2022-10-31T00:57:35;14.70;99.90
24522;DHT22;12680;57.804;12.190;2022-10-31T01:00:03;14.70;99.90
24522;DHT22;12680;57.804;12.190;2022-10-31T01:02:30;14.70;99.90
24522;DHT22;12680;57.804;12.190;2022-10-31T01:04:57;14.70;99.90
24522;DHT22;12680;57.804;12.190;2022-10-31T01:07:25;14.70;99.90
24522;DHT22;12680;57.804;12.190;2022-10-31T01:09:52;14.70;99.90
24522;DHT22;12680;57.804;12.190;2022-10-31T01:12:19;14.60;99.90
24522;DHT22;12680;57.804;12.190;2022-10-31T01:14:46;14.60;99.90
24522;DHT22;12680;57.804;12.190;2022-10-31T01:17:14;14.60;99.90
24522;DHT22;12680;57.804;12.190;2022-10-31T01:19:41;14.60;99.90
24522;DHT22;12680;57.804;12.190;2022-10-31T01:22:08;14.60;99.90
24522;DHT22;12680;57.804;12.190;2022-10-31T01:24:35;14.50;99.90
24522;DHT22;12680;57.804;12.190;2022-10-31T01:27:03;14.50;99.90
24522;DHT22;12680;57.804;12.190;2022-10-31T01:29:30;14.50;99.90
24522;DHT22;12680;57.804;12.190;2022-10-31T01:31:57;14.60;99.90
24522;DHT22;12680;57.804;12.190;2022-10-31T01:34:24;14.60;99.90
24522;DHT22;12680;57.804;12.190;2022-10-31T01:36:51;14.60;99.90
24522;DHT22;12680;57.804;12.190;2022-10-31T01:39:18;14.60;99.90
24522;DHT22;12680;57.804;12.190;2022-10-31T01:41:51;14.60;99.90
24522;DHT22;12680;57.804;12.190;2022-10-31T01:46:52;14.50;99.90
24522;DHT22;12680;57.804;12.190;2022-10-31T01:49:24;14.50;99.90
24522;DHT22;12680;57.804;12.190;2022-10-31T01:51:59;14.50;99.90
24522;DHT22;12680;57.804;12.190;2022-10-31T01:54:32;14.50;99.90
24522;DHT22;12680;57.804;12.190;2022-10-31T01:57:01;14.50;99.90
24522;DHT22;12680;57.804;12.190;2022-10-31T01:59:31;14.50;99.90
24522;DHT22;12680;57.804;12.190;2022-10-31T02:02:00;14.50;99.90
24522;DHT22;12680;57.804;12.190;2022-10-31T02:04:27;14.50;99.90
24522;DHT22;12680;57.804;12.190;2022-10-31T02:07:02;14.40;99.90
24522;DHT22;12680;57.804;12.190;2022-10-31T02:09:31;14.40;99.90
24522;DHT22;12680;57.804;12.190;2022-10-31T02:12:00;14.50;99.90
24522;DHT22;12680;57.804;12.190;2022-10-31T02:14:29;14.50;99.90
24522;DHT22;12680;57.804;12.190;2022-10-31T02:16:57;14.50;99.90
24522;DHT22;12680;57.804;12.190;2022-10-31T02:19:40;14.50;99.90
24522;DHT22;12680;57.804;12.190;2022-10-31T02:22:20;14.50;99.90
24522;DHT22;12680;57.804;12.190;2022-10-31T02:25:13;14.50;99.90
24522;DHT22;12680;57.804;12.190;2022-10-31T02:33:25;14.50;99.90
24522;DHT22;12680;57.804;12.190;2022-10-31T02:36:04;14.50;99.90
24522;DHT22;12680;57.804;12.190;2022-10-31T02:38:38;14.50;99.90
24522;DHT22;12680;57.804;12.190;2022-10-31T02:46:48;14.50;99.90
24522;DHT22;12680;57.804;12.190;2022-10-31T02:49:32;14.50;99.90
24522;DHT22;12680;57.804;12.190;2022-10-31T02:52:01;14.50;99.90
24522;DHT22;12680;57.804;12.190;2022-10-31T02:54:28;14.50;99.90
24522;DHT22;12680;57.804;12.190;2022-10-31T02:57:05;14.50;99.90
24522;DHT22;12680;57.804;12.190;2022-10-31T02:59:35;14.50;99.90
24522;DHT22;12680;57.804;12.190;2022-10-31T03:02:31;14.50;99.90
24522;DHT22;12680;57.804;12.190;2022-10-31T03:10:47;14.50;99.90
24522;DHT22;12680;57.804;12.190;2022-10-31T03:18:39;14.40;99.90
24522;DHT22;12680;57.804;12.190;2022-10-31T03:21:14;14.40;99.90
24522;DHT22;12680;57.804;12.190;2022-10-31T03:23:44;14.50;99.90
24522;DHT22;12680;57.804;12.190;2022-10-31T03:26:14;14.50;99.90
24522;DHT22;12680;57.804;12.190;2022-10-31T03:28:55;14.50;99.90
24522;DHT22;12680;57.804;12.190;2022-10-31T03:31:27;14.50;99.90
24522;DHT22;12680;57.804;12.190;2022-10-31T03:33:58;14.50;99.90
24522;DHT22;12680;57.804;12.190;2022-10-31T03:36:29;14.50;99.90
24522;DHT22;12680;57.804;12.190;2022-10-31T03:38:58;14.50;99.90
24522;DHT22;12680;57.804;12.190;2022-10-31T03:41:30;14.50;99.90
24522;DHT22;12680;57.804;12.190;2022-10-31T03:44:04;14.50;99.90
24522;DHT22;12680;57.804;12.190;2022-10-31T03:46:34;14.50;99.90
24522;DHT22;12680;57.804;12.190;2022-10-31T03:49:02;14.50;99.90
24522;DHT22;12680;57.804;12.190;2022-10-31T03:51:46;14.40;99.90
24522;DHT22;12680;57.804;12.190;2022-10-31T03:54:41;14.40;99.90
24522;DHT22;12680;57.804;12.190;2022-10-31T03:57:19;14.40;99.90
24522;DHT22;12680;57.804;12.190;2022-10-31T03:59:53;14.40;99.90
24522;DHT22;12680;57.804;12.190;2022-10-31T04:02:26;14.40;99.90
24522;DHT22;12680;57.804;12.190;2022-10-31T04:04:56;14.40;99.90
24522;DHT22;12680;57.804;12.190;2022-10-31T04:07:26;14.40;99.90
24522;DHT22;12680;57.804;12.190;2022-10-31T04:09:55;14.40;99.90
24522;DHT22;12680;57.804;12.190;2022-10-31T04:12:24;14.40;99.90
24522;DHT22;12680;57.804;12.190;2022-10-31T04:14:53;14.40;99.90
24522;DHT22;12680;57.804;12.190;2022-10-31T04:17:23;14.50;99.90
24522;DHT22;12680;57.804;12.190;2022-10-31T04:19:50;14.50;99.90
24522;DHT22;12680;57.804;12.190;2022-10-31T04:22:17;14.50;99.90
24522;DHT22;12680;57.804;12.190;2022-10-31T04:24:44;14.50;99.90
24522;DHT22;12680;57.804;12.190;2022-10-31T04:27:11;14.50;99.90
24522;DHT22;12680;57.804;12.190;2022-10-31T04:29:39;14.50;99.90
24522;DHT22;12680;57.804;12.190;2022-10-31T04:32:06;14.40;99.90
24522;DHT22;12680;57.804;12.190;2022-10-31T04:34:33;14.40;99.90
24522;DHT22;12680;57.804;12.190;2022-10-31T04:37:00;14.40;99.90
24522;DHT22;12680;57.804;12.190;2022-10-31T04:39:27;14.40;99.90
24522;DHT22;12680;57.804;12.190;2022-10-31T04:41:54;14.50;99.90
24522;DHT22;12680;57.804;12.190;2022-10-31T04:44:21;14.50;99.90
24522;DHT22;12680;57.804;12.190;2022-10-31T04:46:48;14.50;99.90
24522;DHT22;12680;57.804;12.190;2022-10-31T04:49:15;14.50;99.90
24522;DHT22;12680;57.804;12.190;2022-10-31T04:51:42;14.50;99.90
24522;DHT22;12680;57.804;12.190;2022-10-31T04:54:09;14.50;99.90
24522;DHT22;12680;57.804;12.190;2022-10-31T04:56:36;14.50;99.90
24522;DHT22;12680;57.804;12.190;2022-10-31T04:59:03;14.50;99.90
24522;DHT22;12680;57.804;12.190;2022-10-31T05:01:31;14.50;99.90
24522;DHT22;12680;57.804;12.190;2022-10-31T05:03:58;14.50;99.90
24522;DHT22;12680;57.804;12.190;2022-10-31T05:06:25;14.50;99.90
24522;DHT22;12680;57.804;12.190;2022-10-31T05:08:52;14.50;99.90
24522;DHT22;12680;57.804;12.190;2022-10-31T05:11:19;14.50;99.90
24522;DHT22;12680;57.804;12.190;2022-10-31T05:13:46;14.50;99.90
24522;DHT22;12680;57.804;12.190;2022-10-31T05:16:14;14.50;99.90
24522;DHT22;12680;57.804;12.190;2022-10-31T05:18:41;14.50;99.90
24522;DHT22;12680;57.804;12.190;2022-10-31T05:21:08;14.40;99.90
24522;DHT22;12680;57.804;12.190;2022-10-31T05:23:36;14.40;99.90
24522;DHT22;12680;57.804;12.190;2022-10-31T05:26:04;14.40;99.90
24522;DHT22;12680;57.804;12.190;2022-10-31T05:28:31;14.30;99.90
24522;DHT22;12680;57.804;12.190;2022-10-31T05:30:58;14.30;99.90
24522;DHT22;12680;57.804;12.190;2022-10-31T05:33:25;14.30;99.90
24522;DHT22;12680;57.804;12.190;2022-10-31T05:35:52;14.40;99.90
24522;DHT22;12680;57.804;12.190;2022-10-31T05:38:19;14.30;99.90
24522;DHT22;12680;57.804;12.190;2022-10-31T05:40:46;14.30;99.90
24522;DHT22;12680;57.804;12.190;2022-10-31T05:43:14;14.30;99.90
24522;DHT22;12680;57.804;12.190;2022-10-31T05:45:41;14.30;99.90
24522;DHT22;12680;57.804;12.190;2022-10-31T05:48:08;14.30;99.90
24522;DHT22;12680;57.804;12.190;2022-10-31T05:50:35;14.30;99.90
24522;DHT22;12680;57.804;12.190;2022-10-31T05:53:05;14.30;99.90
24522;DHT22;12680;57.804;12.190;2022-10-31T05:55:32;14.30;99.90
24522;DHT22;12680;57.804;12.190;2022-10-31T05:58:00;14.30;99.90
24522;DHT22;12680;57.804;12.190;2022-10-31T06:00:28;14.30;99.90
24522;DHT22;12680;57.804;12.190;2022-10-31T06:03:03;14.30;99.90
24522;DHT22;12680;57.804;12.190;2022-10-31T06:05:31;14.30;99.90
24522;DHT22;12680;57.804;12.190;2022-10-31T06:07:58;14.30;99.90
24522;DHT22;12680;57.804;12.190;2022-10-31T06:10:26;14.30;99.90
24522;DHT22;12680;57.804;12.190;2022-10-31T06:12:54;14.30;99.90
24522;DHT22;12680;57.804;12.190;2022-10-31T06:15:21;14.30;99.90
24522;DHT22;12680;57.804;12.190;2022-10-31T06:18:01;14.30;99.90
24522;DHT22;12680;57.804;12.190;2022-10-31T06:20:30;14.30;99.90
24522;DHT22;12680;57.804;12.190;2022-10-31T06:22:57;14.30;99.90
24522;DHT22;12680;57.804;12.190;2022-10-31T06:25:25;14.30;99.90
24522;DHT22;12680;57.804;12.190;2022-10-31T06:27:52;14.30;99.90
24522;DHT22;12680;57.804;12.190;2022-10-31T06:30:19;14.30;99.90
24522;DHT22;12680;57.804;12.190;2022-10-31T06:32:46;14.30;99.90
24522;DHT22;12680;57.804;12.190;2022-10-31T06:35:14;14.40;99.90
24522;DHT22;12680;57.804;12.190;2022-10-31T06:37:41;14.30;99.90
24522;DHT22;12680;57.804;12.190;2022-10-31T06:40:12;14.30;99.90
24522;DHT22;12680;57.804;12.190;2022-10-31T06:42:39;14.40;99.90
24522;DHT22;12680;57.804;12.190;2022-10-31T06:45:06;14.40;99.90
24522;DHT22;12680;57.804;12.190;2022-10-31T06:47:34;14.40;99.90
24522;DHT22;12680;57.804;12.190;2022-10-31T06:50:22;14.40;99.90
24522;DHT22;12680;57.804;12.190;2022-10-31T06:52:53;14.40;99.90
24522;DHT22;12680;57.804;12.190;2022-10-31T06:55:21;14.40;99.90
24522;DHT22;12680;57.804;12.190;2022-10-31T06:57:53;14.40;99.90
24522;DHT22;12680;57.804;12.190;2022-10-31T07:00:29;14.40;99.90
24522;DHT22;12680;57.804;12.190;2022-10-31T07:02:58;14.40;99.90
24522;DHT22;12680;57.804;12.190;2022-10-31T07:05:26;14.40;99.90
24522;DHT22;12680;57.804;12.190;2022-10-31T07:07:55;14.40;99.90
24522;DHT22;12680;57.804;12.190;2022-10-31T07:10:24;14.50;99.90
24522;DHT22;12680;57.804;12.190;2022-10-31T07:13:00;14.40;99.90
24522;DHT22;12680;57.804;12.190;2022-10-31T07:15:32;14.40;99.90
24522;DHT22;12680;57.804;12.190;2022-10-31T07:18:00;14.50;99.90
24522;DHT22;12680;57.804;12.190;2022-10-31T07:20:31;14.50;99.90
24522;DHT22;12680;57.804;12.190;2022-10-31T07:22:58;14.50;99.90
24522;DHT22;12680;57.804;12.190;2022-10-31T07:25:26;14.40;99.90
24522;DHT22;12680;57.804;12.190;2022-10-31T07:27:53;14.50;99.90
24522;DHT22;12680;57.804;12.190;2022-10-31T07:30:20;14.50;99.90
24522;DHT22;12680;57.804;12.190;2022-10-31T07:32:49;14.50;99.90
24522;DHT22;12680;57.804;12.190;2022-10-31T07:35:18;14.50;99.90
24522;DHT22;12680;57.804;12.190;2022-10-31T07:37:46;14.50;99.90
24522;DHT22;12680;57.804;12.190;2022-10-31T07:40:13;14.50;99.90
24522;DHT22;12680;57.804;12.190;2022-10-31T07:42:46;14.50;99.90
24522;DHT22;12680;57.804;12.190;2022-10-31T07:45:16;14.60;99.90
24522;DHT22;12680;57.804;12.190;2022-10-31T07:47:47;14.60;99.90
24522;DHT22;12680;57.804;12.190;2022-10-31T07:50:18;14.60;99.90
24522;DHT22;12680;57.804;12.190;2022-10-31T07:52:45;14.50;99.90
24522;DHT22;12680;57.804;12.190;2022-10-31T07:55:13;14.50;99.90
24522;DHT22;12680;57.804;12.190;2022-10-31T07:57:41;14.50;99.90
24522;DHT22;12680;57.804;12.190;2022-10-31T08:00:09;14.50;99.90
24522;DHT22;12680;57.804;12.190;2022-10-31T08:02:36;14.50;99.90
24522;DHT22;12680;57.804;12.190;2022-10-31T08:05:05;14.50;99.90
24522;DHT22;12680;57.804;12.190;2022-10-31T08:07:36;14.40;99.90
24522;DHT22;12680;57.804;12.190;2022-10-31T08:10:05;14.40;99.90
24522;DHT22;12680;57.804;12.190;2022-10-31T08:12:32;14.40;99.90
24522;DHT22;12680;57.804;12.190;2022-10-31T08:14:59;14.40;99.90
24522;DHT22;12680;57.804;12.190;2022-10-31T08:17:27;14.40;99.90
24522;DHT22;12680;57.804;12.190;2022-10-31T08:19:54;14.50;99.90
24522;DHT22;12680;57.804;12.190;2022-10-31T08:22:21;14.50;99.90
24522;DHT22;12680;57.804;12.190;2022-10-31T08:24:48;14.50;99.90
24522;DHT22;12680;57.804;12.190;2022-10-31T08:27:15;14.50;99.90
24522;DHT22;12680;57.804;12.190;2022-10-31T08:29:42;14.50;99.90
24522;DHT22;12680;57.804;12.190;2022-10-31T08:32:09;14.50;99.90
24522;DHT22;12680;57.804;12.190;2022-10-31T08:34:36;14.50;99.90
24522;DHT22;12680;57.804;12.190;2022-10-31T08:37:04;14.40;99.90
24522;DHT22;12680;57.804;12.190;2022-10-31T08:39:31;14.40;99.90
24522;DHT22;12680;57.804;12.190;2022-10-31T08:41:58;14.40;99.90
24522;DHT22;12680;57.804;12.190;2022-10-31T08:44:25;14.40;99.90
24522;DHT22;12680;57.804;12.190;2022-10-31T08:46:53;14.50;99.90
24522;DHT22;12680;57.804;12.190;2022-10-31T08:49:20;14.50;99.90
24522;DHT22;12680;57.804;12.190;2022-10-31T08:51:48;14.60;99.90
24522;DHT22;12680;57.804;12.190;2022-10-31T08:54:15;14.60;99.90
24522;DHT22;12680;57.804;12.190;2022-10-31T08:56:42;14.60;99.90
24522;DHT22;12680;57.804;12.190;2022-10-31T08:59:09;14.60;99.90
24522;DHT22;12680;57.804;12.190;2022-10-31T09:01:36;14.60;99.90
24522;DHT22;12680;57.804;12.190;2022-10-31T09:04:05;14.70;99.90
24522;DHT22;12680;57.804;12.190;2022-10-31T09:06:32;14.70;99.90
24522;DHT22;12680;57.804;12.190;2022-10-31T09:09:00;14.70;99.90
24522;DHT22;12680;57.804;12.190;2022-10-31T09:11:27;14.70;99.90
24522;DHT22;12680;57.804;12.190;2022-10-31T09:13:56;14.70;99.90
24522;DHT22;12680;57.804;12.190;2022-10-31T09:16:24;14.80;99.90
24522;DHT22;12680;57.804;12.190;2022-10-31T09:18:51;14.80;99.90
24522;DHT22;12680;57.804;12.190;2022-10-31T09:21:18;14.90;99.90
24522;DHT22;12680;57.804;12.190;2022-10-31T09:23:46;14.90;99.90
24522;DHT22;12680;57.804;12.190;2022-10-31T09:26:13;15.00;99.90
24522;DHT22;12680;57.804;12.190;2022-10-31T09:28:41;15.10;99.90
24522;DHT22;12680;57.804;12.190;2022-10-31T09:31:08;15.10;99.90
24522;DHT22;12680;57.804;12.190;2022-10-31T09:33:35;15.20;99.90
24522;DHT22;12680;57.804;12.190;2022-10-31T09:36:04;15.30;99.90
24522;DHT22;12680;57.804;12.190;2022-10-31T09:38:31;15.30;99.90
24522;DHT22;12680;57.804;12.190;2022-10-31T09:41:19;15.40;99.90
24522;DHT22;12680;57.804;12.190;2022-10-31T09:51:44;15.30;99.90
24522;DHT22;12680;57.804;12.190;2022-10-31T09:54:41;15.20;99.90
24522;DHT22;12680;57.804;12.190;2022-10-31T09:57:14;15.20;99.90
24522;DHT22;12680;57.804;12.190;2022-10-31T09:59:44;15.20;99.90
24522;DHT22;12680;57.804;12.190;2022-10-31T10:10:36;15.20;99.90
24522;DHT22;12680;57.804;12.190;2022-10-31T10:13:13;15.20;99.90
24522;DHT22;12680;57.804;12.190;2022-10-31T10:30:11;15.30;99.90
24522;DHT22;12680;57.804;12.190;2022-10-31T10:35:26;15.40;99.90
24522;DHT22;12680;57.804;12.190;2022-10-31T10:40:45;15.50;99.90
24522;DHT22;12680;57.804;12.190;2022-10-31T10:43:35;15.50;99.90
24522;DHT22;12680;57.804;12.190;2022-10-31T10:49:40;15.50;99.90
24522;DHT22;12680;57.804;12.190;2022-10-31T10:58:00;15.50;99.90
24522;DHT22;12680;57.804;12.190;2022-10-31T11:00:42;15.50;99.90
24522;DHT22;12680;57.804;12.190;2022-10-31T11:03:17;15.50;99.90
24522;DHT22;12680;57.804;12.190;2022-10-31T11:05:55;15.60;99.90
24522;DHT22;12680;57.804;12.190;2022-10-31T11:08:33;15.70;99.90
24522;DHT22;12680;57.804;12.190;2022-10-31T11:11:18;15.80;99.90
24522;DHT22;12680;57.804;12.190;2022-10-31T11:13:49;15.80;99.90
24522;DHT22;12680;57.804;12.190;2022-10-31T11:16:38;15.80;99.90
24522;DHT22;12680;57.804;12.190;2022-10-31T11:19:20;15.80;99.90
24522;DHT22;12680;57.804;12.190;2022-10-31T11:21:48;15.80;99.90
24522;DHT22;12680;57.804;12.190;2022-10-31T11:24:25;15.80;99.90
24522;DHT22;12680;57.804;12.190;2022-10-31T11:27:16;15.80;99.90
24522;DHT22;12680;57.804;12.190;2022-10-31T11:29:47;15.80;99.90
24522;DHT22;12680;57.804;12.190;2022-10-31T11:32:24;15.70;99.90
24522;DHT22;12680;57.804;12.190;2022-10-31T11:34:55;15.70;99.90
24522;DHT22;12680;57.804;12.190;2022-10-31T11:37:32;15.70;99.90
24522;DHT22;12680;57.804;12.190;2022-10-31T11:40:05;15.60;99.90
24522;DHT22;12680;57.804;12.190;2022-10-31T11:42:41;15.50;99.90
24522;DHT22;12680;57.804;12.190;2022-10-31T11:45:19;15.40;99.90
24522;DHT22;12680;57.804;12.190;2022-10-31T11:47:55;15.30;99.90
24522;DHT22;12680;57.804;12.190;2022-10-31T11:50:37;15.20;99.90
24522;DHT22;12680;57.804;12.190;2022-10-31T11:53:18;15.10;99.90
24522;DHT22;12680;57.804;12.190;2022-10-31T11:55:46;15.10;99.90
24522;DHT22;12680;57.804;12.190;2022-10-31T11:58:25;15.10;99.90
24522;DHT22;12680;57.804;12.190;2022-10-31T12:00:55;15.00;99.90
24522;DHT22;12680;57.804;12.190;2022-10-31T12:06:01;15.00;99.90
24522;DHT22;12680;57.804;12.190;2022-10-31T12:08:35;15.10;99.90
24522;DHT22;12680;57.804;12.190;2022-10-31T12:11:10;15.00;99.90
24522;DHT22;12680;57.804;12.190;2022-10-31T12:16:46;15.00;99.90
24522;DHT22;12680;57.804;12.190;2022-10-31T12:22:18;15.00;99.90
24522;DHT22;12680;57.804;12.190;2022-10-31T12:39:39;14.90;99.90
24522;DHT22;12680;57.804;12.190;2022-10-31T12:42:22;14.80;99.90
24522;DHT22;12680;57.804;12.190;2022-10-31T12:50:55;14.60;99.90
24522;DHT22;12680;57.804;12.190;2022-10-31T13:07:48;14.50;99.90
24522;DHT22;12680;57.804;12.190;2022-10-31T13:10:37;14.50;99.90
24522;DHT22;12680;57.804;12.190;2022-10-31T13:16:00;14.50;99.90
24522;DHT22;12680;57.804;12.190;2022-10-31T13:18:42;14.50;99.90
24522;DHT22;12680;57.804;12.190;2022-10-31T13:21:24;14.50;99.90
24522;DHT22;12680;57.804;12.190;2022-10-31T13:23:51;14.50;99.90
24522;DHT22;12680;57.804;12.190;2022-10-31T13:26:43;14.50;99.90
24522;DHT22;12680;57.804;12.190;2022-10-31T13:31:44;14.50;99.90
24522;DHT22;12680;57.804;12.190;2022-10-31T13:39:38;14.50;99.90
24522;DHT22;12680;57.804;12.190;2022-10-31T13:44:42;14.50;99.90
24522;DHT22;12680;57.804;12.190;2022-10-31T13:47:28;14.50;99.90
24522;DHT22;12680;57.804;12.190;2022-10-31T13:52:45;14.50;99.90
24522;DHT22;12680;57.804;12.190;2022-10-31T13:55:42;14.50;99.90
24522;DHT22;12680;57.804;12.190;2022-10-31T13:58:30;14.50;99.90
24522;DHT22;12680;57.804;12.190;2022-10-31T14:03:27;14.60;99.90
24522;DHT22;12680;57.804;12.190;2022-10-31T14:06:15;14.60;99.90
24522;DHT22;12680;57.804;12.190;2022-10-31T14:08:49;14.60;99.90
24522;DHT22;12680;57.804;12.190;2022-10-31T14:11:26;14.60;99.90
24522;DHT22;12680;57.804;12.190;2022-10-31T14:14:02;14.60;99.90
24522;DHT22;12680;57.804;12.190;2022-10-31T14:16:30;14.60;99.90
24522;DHT22;12680;57.804;12.190;2022-10-31T14:23:52;14.50;99.90
24522;DHT22;12680;57.804;12.190;2022-10-31T14:31:53;14.60;99.90
24522;DHT22;12680;57.804;12.190;2022-10-31T14:52:56;14.30;99.90
24522;DHT22;12680;57.804;12.190;2022-10-31T14:55:24;14.20;99.90
24522;DHT22;12680;57.804;12.190;2022-10-31T14:58:00;14.20;99.90
24522;DHT22;12680;57.804;12.190;2022-10-31T15:00:29;14.20;99.90
24522;DHT22;12680;57.804;12.190;2022-10-31T15:03:21;14.10;99.90
24522;DHT22;12680;57.804;12.190;2022-10-31T15:05:55;14.10;99.90
24522;DHT22;12680;57.804;12.190;2022-10-31T15:13:52;14.10;99.90
24522;DHT22;12680;57.804;12.190;2022-10-31T15:16:25;14.10;99.90
24522;DHT22;12680;57.804;12.190;2022-10-31T15:19:03;14.10;99.90
24522;DHT22;12680;57.804;12.190;2022-10-31T15:21:31;14.10;99.90
24522;DHT22;12680;57.804;12.190;2022-10-31T15:24:01;14.10;99.90
24522;DHT22;12680;57.804;12.190;2022-10-31T15:26:37;14.10;99.90
24522;DHT22;12680;57.804;12.190;2022-10-31T15:29:15;14.00;99.90
24522;DHT22;12680;57.804;12.190;2022-10-31T15:31:53;14.00;99.90
24522;DHT22;12680;57.804;12.190;2022-10-31T15:34:36;14.00;99.90
24522;DHT22;12680;57.804;12.190;2022-10-31T15:37:07;13.90;99.90
24522;DHT22;12680;57.804;12.190;2022-10-31T15:39:36;13.90;99.90
24522;DHT22;12680;57.804;12.190;2022-10-31T15:42:27;13.80;99.90
24522;DHT22;12680;57.804;12.190;2022-10-31T15:47:29;13.70;99.90
24522;DHT22;12680;57.804;12.190;2022-10-31T15:49:58;13.60;99.90
24522;DHT22;12680;57.804;12.190;2022-10-31T15:55:02;13.50;99.90
24522;DHT22;12680;57.804;12.190;2022-10-31T15:57:30;13.50;99.90
24522;DHT22;12680;57.804;12.190;2022-10-31T15:59:58;13.50;99.90
24522;DHT22;12680;57.804;12.190;2022-10-31T16:02:27;13.50;99.90
24522;DHT22;12680;57.804;12.190;2022-10-31T16:05:01;13.50;99.90
24522;DHT22;12680;57.804;12.190;2022-10-31T16:07:29;13.50;99.90
24522;DHT22;12680;57.804;12.190;2022-10-31T16:10:02;13.50;99.90
24522;DHT22;12680;57.804;12.190;2022-10-31T16:12:44;13.50;99.90
24522;DHT22;12680;57.804;12.190;2022-10-31T16:15:16;13.50;99.90
24522;DHT22;12680;57.804;12.190;2022-10-31T16:17:46;13.50;99.90
24522;DHT22;12680;57.804;12.190;2022-10-31T16:20:22;13.50;99.90
24522;DHT22;12680;57.804;12.190;2022-10-31T16:22:51;13.50;99.90
24522;DHT22;12680;57.804;12.190;2022-10-31T16:25:37;13.50;99.90
24522;DHT22;12680;57.804;12.190;2022-10-31T16:31:14;13.50;99.90
24522;DHT22;12680;57.804;12.190;2022-10-31T16:33:41;13.50;99.90
24522;DHT22;12680;57.804;12.190;2022-10-31T16:36:44;13.50;99.90
24522;DHT22;12680;57.804;12.190;2022-10-31T16:39:11;13.50;99.90
24522;DHT22;12680;57.804;12.190;2022-10-31T16:41:42;13.50;99.90
24522;DHT22;12680;57.804;12.190;2022-10-31T16:46:45;13.40;99.90
24522;DHT22;12680;57.804;12.190;2022-10-31T16:49:12;13.40;99.90
24522;DHT22;12680;57.804;12.190;2022-10-31T16:51:39;13.40;99.90
24522;DHT22;12680;57.804;12.190;2022-10-31T16:54:07;13.40;99.90
24522;DHT22;12680;57.804;12.190;2022-10-31T16:56:37;13.40;99.90
24522;DHT22;12680;57.804;12.190;2022-10-31T16:59:06;13.40;99.90
24522;DHT22;12680;57.804;12.190;2022-10-31T17:01:44;13.40;99.90
24522;DHT22;12680;57.804;12.190;2022-10-31T17:04:14;13.40;99.90
24522;DHT22;12680;57.804;12.190;2022-10-31T17:06:41;13.40;99.90
24522;DHT22;12680;57.804;12.190;2022-10-31T17:09:09;13.40;99.90
24522;DHT22;12680;57.804;12.190;2022-10-31T17:11:39;13.40;99.90
24522;DHT22;12680;57.804;12.190;2022-10-31T17:14:15;13.40;99.90
24522;DHT22;12680;57.804;12.190;2022-10-31T17:16:43;13.30;99.90
24522;DHT22;12680;57.804;12.190;2022-10-31T17:19:11;13.30;99.90
24522;DHT22;12680;57.804;12.190;2022-10-31T17:21:39;13.30;99.90
24522;DHT22;12680;57.804;12.190;2022-10-31T17:24:08;13.30;99.90
24522;DHT22;12680;57.804;12.190;2022-10-31T17:26:37;13.30;99.90
24522;DHT22;12680;57.804;12.190;2022-10-31T17:29:04;13.30;99.90
24522;DHT22;12680;57.804;12.190;2022-10-31T17:31:32;13.30;99.90
24522;DHT22;12680;57.804;12.190;2022-10-31T17:34:02;13.30;99.90
24522;DHT22;12680;57.804;12.190;2022-10-31T17:36:34;13.20;99.90
24522;DHT22;12680;57.804;12.190;2022-10-31T17:39:02;13.20;99.90
24522;DHT22;12680;57.804;12.190;2022-10-31T17:41:31;13.20;99.90
24522;DHT22;12680;57.804;12.190;2022-10-31T17:43:59;13.20;99.90
24522;DHT22;12680;57.804;12.190;2022-10-31T17:46:26;13.20;99.90
24522;DHT22;12680;57.804;12.190;2022-10-31T17:48:54;13.20;99.90
24522;DHT22;12680;57.804;12.190;2022-10-31T17:51:21;13.10;99.90
24522;DHT22;12680;57.804;12.190;2022-10-31T17:53:49;13.10;99.90
24522;DHT22;12680;57.804;12.190;2022-10-31T17:56:16;13.10;99.90
24522;DHT22;12680;57.804;12.190;2022-10-31T17:58:43;13.10;99.90
24522;DHT22;12680;57.804;12.190;2022-10-31T18:01:12;13.10;99.90
24522;DHT22;12680;57.804;12.190;2022-10-31T18:03:40;13.10;99.90
24522;DHT22;12680;57.804;12.190;2022-10-31T18:06:08;13.10;99.90
24522;DHT22;12680;57.804;12.190;2022-10-31T18:08:37;13.10;99.90
24522;DHT22;12680;57.804;12.190;2022-10-31T18:11:15;13.20;99.90
24522;DHT22;12680;57.804;12.190;2022-10-31T18:13:43;13.20;99.90
24522;DHT22;12680;57.804;12.190;2022-10-31T18:16:14;13.10;99.90
24522;DHT22;12680;57.804;12.190;2022-10-31T18:18:42;13.10;99.90
24522;DHT22;12680;57.804;12.190;2022-10-31T18:21:09;13.10;99.90
24522;DHT22;12680;57.804;12.190;2022-10-31T18:23:36;13.20;99.90
24522;DHT22;12680;57.804;12.190;2022-10-31T18:26:04;13.10;99.90
24522;DHT22;12680;57.804;12.190;2022-10-31T18:28:31;13.10;99.90
24522;DHT22;12680;57.804;12.190;2022-10-31T18:30:59;13.10;99.90
24522;DHT22;12680;57.804;12.190;2022-10-31T18:33:26;13.10;99.90
24522;DHT22;12680;57.804;12.190;2022-10-31T18:35:54;13.10;99.90